sensor_id;sensor_type;location;lat;lon;timestamp;pressure;altitude;pressure_sealevel;temperature
61189;BMP280;47054;39.716;2.904;2023-04-24T00:02:17;100129.56;;;24.76
61189;BMP280;47054;39.716;2.904;2023-04-24T00:05:04;100126.44;;;24.77
61189;BMP280;47054;39.716;2.904;2023-04-24T00:07:50;100131.88;;;24.77
61189;BMP280;47054;39.716;2.904;2023-04-24T00:10:38;100122.63;;;24.75
61189;BMP280;47054;39.716;2.904;2023-04-24T00:13:23;100130.31;;;24.76
61189;BMP280;47054;39.716;2.904;2023-04-24T00:16:08;100134.22;;;24.75
61189;BMP280;47054;39.716;2.904;2023-04-24T00:18:52;100124.22;;;24.72
61189;BMP280;47054;39.716;2.904;2023-04-24T00:21:37;100133.81;;;24.77
61189;BMP280;47054;39.716;2.904;2023-04-24T00:24:22;100131.09;;;24.77
61189;BMP280;47054;39.716;2.904;2023-04-24T00:27:06;100135.75;;;24.76
61189;BMP280;47054;39.716;2.904;2023-04-24T00:29:51;100141.94;;;24.77
61189;BMP280;47054;39.716;2.904;2023-04-24T00:32:37;100148.53;;;24.76
61189;BMP280;47054;39.716;2.904;2023-04-24T00:35:21;100140.00;;;24.77
61189;BMP280;47054;39.716;2.904;2023-04-24T00:38:07;100140.41;;;24.76
61189;BMP280;47054;39.716;2.904;2023-04-24T00:40:52;100151.25;;;24.76
61189;BMP280;47054;39.716;2.904;2023-04-24T00:43:39;100147.09;;;24.71
61189;BMP280;47054;39.716;2.904;2023-04-24T00:46:23;100147.75;;;24.75
61189;BMP280;47054;39.716;2.904;2023-04-24T00:49:08;100143.09;;;24.76
61189;BMP280;47054;39.716;2.904;2023-04-24T00:51:52;100145.81;;;24.76
61189;BMP280;47054;39.716;2.904;2023-04-24T00:54:38;100159.38;;;24.76
61189;BMP280;47054;39.716;2.904;2023-04-24T00:57:22;100162.09;;;24.76
61189;BMP280;47054;39.716;2.904;2023-04-24T01:00:08;100149.31;;;24.76
61189;BMP280;47054;39.716;2.904;2023-04-24T01:02:57;100121.91;;;24.71
61189;BMP280;47054;39.716;2.904;2023-04-24T01:05:44;100118.78;;;24.72
61189;BMP280;47054;39.716;2.904;2023-04-24T01:08:29;100147.03;;;24.75
61189;BMP280;47054;39.716;2.904;2023-04-24T01:11:14;100164.03;;;24.75
61189;BMP280;47054;39.716;2.904;2023-04-24T01:13:59;100166.75;;;24.75
61189;BMP280;47054;39.716;2.904;2023-04-24T01:16:43;100134.22;;;24.75
61189;BMP280;47054;39.716;2.904;2023-04-24T01:19:28;100119.91;;;24.75
61189;BMP280;47054;39.716;2.904;2023-04-24T01:22:14;100134.97;;;24.76
61189;BMP280;47054;39.716;2.904;2023-04-24T01:24:59;100142.34;;;24.75
61189;BMP280;47054;39.716;2.904;2023-04-24T01:27:43;100135.75;;;24.76
61189;BMP280;47054;39.716;2.904;2023-04-24T01:30:31;100126.84;;;24.76
61189;BMP280;47054;39.716;2.904;2023-04-24T01:33:16;100126.06;;;24.75
61189;BMP280;47054;39.716;2.904;2023-04-24T01:36:01;100133.88;;;24.73
61189;BMP280;47054;39.716;2.904;2023-04-24T01:38:46;100138.13;;;24.74
61189;BMP280;47054;39.716;2.904;2023-04-24T01:41:32;100131.50;;;24.75
61189;BMP280;47054;39.716;2.904;2023-04-24T01:44:17;100128.78;;;24.75
61189;BMP280;47054;39.716;2.904;2023-04-24T01:47:02;100130.75;;;24.75
61189;BMP280;47054;39.716;2.904;2023-04-24T01:49:48;100126.53;;;24.74
61189;BMP280;47054;39.716;2.904;2023-04-24T01:52:34;100111.78;;;24.75
61189;BMP280;47054;39.716;2.904;2023-04-24T01:55:20;100120.34;;;24.73
61189;BMP280;47054;39.716;2.904;2023-04-24T01:58:05;100131.56;;;24.72
61189;BMP280;47054;39.716;2.904;2023-04-24T02:00:50;100136.59;;;24.73
61189;BMP280;47054;39.716;2.904;2023-04-24T02:03:34;100118.88;;;24.69
61189;BMP280;47054;39.716;2.904;2023-04-24T02:06:18;100110.25;;;24.74
61189;BMP280;47054;39.716;2.904;2023-04-24T02:09:03;100123.81;;;24.74
61189;BMP280;47054;39.716;2.904;2023-04-24T02:11:48;100137.38;;;24.74
61189;BMP280;47054;39.716;2.904;2023-04-24T02:14:33;100120.81;;;24.68
61189;BMP280;47054;39.716;2.904;2023-04-24T02:17:17;100124.97;;;24.73
61189;BMP280;47054;39.716;2.904;2023-04-24T02:20:04;100125.75;;;24.73
61189;BMP280;47054;39.716;2.904;2023-04-24T02:22:50;100132.34;;;24.72
61189;BMP280;47054;39.716;2.904;2023-04-24T02:25:35;100137.00;;;24.72
61189;BMP280;47054;39.716;2.904;2023-04-24T02:28:20;100130.81;;;24.71
61189;BMP280;47054;39.716;2.904;2023-04-24T02:31:04;100126.69;;;24.67
61189;BMP280;47054;39.716;2.904;2023-04-24T02:33:50;100112.00;;;24.64
61189;BMP280;47054;39.716;2.904;2023-04-24T02:36:34;100121.50;;;24.72
61189;BMP280;47054;39.716;2.904;2023-04-24T02:39:19;100119.97;;;24.71
61189;BMP280;47054;39.716;2.904;2023-04-24T02:42:04;100118.88;;;24.69
61189;BMP280;47054;39.716;2.904;2023-04-24T02:44:49;100123.13;;;24.70
61189;BMP280;47054;39.716;2.904;2023-04-24T02:47:36;100129.72;;;24.69
61189;BMP280;47054;39.716;2.904;2023-04-24T02:50:21;100133.97;;;24.70
61189;BMP280;47054;39.716;2.904;2023-04-24T02:53:05;100135.47;;;24.71
61189;BMP280;47054;39.716;2.904;2023-04-24T02:55:50;100134.81;;;24.67
61189;BMP280;47054;39.716;2.904;2023-04-24T02:58:34;100123.19;;;24.66
61189;BMP280;47054;39.716;2.904;2023-04-24T03:01:20;100125.06;;;24.69
61189;BMP280;47054;39.716;2.904;2023-04-24T03:04:04;100111.50;;;24.69
61189;BMP280;47054;39.716;2.904;2023-04-24T03:06:49;100117.69;;;24.70
61189;BMP280;47054;39.716;2.904;2023-04-24T03:09:37;100116.16;;;24.69
61189;BMP280;47054;39.716;2.904;2023-04-24T03:12:22;100111.25;;;24.64
61189;BMP280;47054;39.716;2.904;2023-04-24T03:15:08;100106.16;;;24.66
61189;BMP280;47054;39.716;2.904;2023-04-24T03:17:55;100109.56;;;24.70
61189;BMP280;47054;39.716;2.904;2023-04-24T03:20:39;100111.94;;;24.68
61189;BMP280;47054;39.716;2.904;2023-04-24T03:23:23;100117.34;;;24.68
61189;BMP280;47054;39.716;2.904;2023-04-24T03:26:09;100117.34;;;24.68
61189;BMP280;47054;39.716;2.904;2023-04-24T03:28:57;100105.00;;;24.67
61189;BMP280;47054;39.716;2.904;2023-04-24T03:31:41;100108.47;;;24.67
61189;BMP280;47054;39.716;2.904;2023-04-24T03:34:26;100119.31;;;24.67
61189;BMP280;47054;39.716;2.904;2023-04-24T03:37:11;100114.28;;;24.66
61189;BMP280;47054;39.716;2.904;2023-04-24T03:40:00;100117.00;;;24.66
61189;BMP280;47054;39.716;2.904;2023-04-24T03:42:45;100123.97;;;24.67
61189;BMP280;47054;39.716;2.904;2023-04-24T03:45:30;100113.50;;;24.65
61189;BMP280;47054;39.716;2.904;2023-04-24T03:48:15;100118.19;;;24.65
61189;BMP280;47054;39.716;2.904;2023-04-24T03:51:00;100128.63;;;24.66
61189;BMP280;47054;39.716;2.904;2023-04-24T03:53:45;100124.38;;;24.65
61189;BMP280;47054;39.716;2.904;2023-04-24T03:56:33;100124.44;;;24.62
61189;BMP280;47054;39.716;2.904;2023-04-24T03:59:19;100119.41;;;24.64
61189;BMP280;47054;39.716;2.904;2023-04-24T04:02:10;100118.94;;;24.65
61189;BMP280;47054;39.716;2.904;2023-04-24T04:04:55;100113.97;;;24.64
61189;BMP280;47054;39.716;2.904;2023-04-24T04:07:40;100125.56;;;24.64
61189;BMP280;47054;39.716;2.904;2023-04-24T04:10:24;100117.41;;;24.64
61189;BMP280;47054;39.716;2.904;2023-04-24T04:13:08;100115.91;;;24.63
61189;BMP280;47054;39.716;2.904;2023-04-24T04:15:55;100111.25;;;24.64
61189;BMP280;47054;39.716;2.904;2023-04-24T04:18:39;100109.78;;;24.59
61189;BMP280;47054;39.716;2.904;2023-04-24T04:21:25;100106.72;;;24.57
61189;BMP280;47054;39.716;2.904;2023-04-24T04:24:16;100111.41;;;24.57
61189;BMP280;47054;39.716;2.904;2023-04-24T04:27:04;100117.06;;;24.62
61189;BMP280;47054;39.716;2.904;2023-04-24T04:29:54;100118.25;;;24.61
61189;BMP280;47054;39.716;2.904;2023-04-24T04:32:41;100121.72;;;24.62
61189;BMP280;47054;39.716;2.904;2023-04-24T04:35:26;100135.28;;;24.62
61189;BMP280;47054;39.716;2.904;2023-04-24T04:38:11;100119.53;;;24.57
61189;BMP280;47054;39.716;2.904;2023-04-24T04:41:01;100136.56;;;24.57
61189;BMP280;47054;39.716;2.904;2023-04-24T04:43:49;100128.78;;;24.59
61189;BMP280;47054;39.716;2.904;2023-04-24T04:46:35;100147.75;;;24.59
61189;BMP280;47054;39.716;2.904;2023-04-24T04:49:35;100138.13;;;24.55
61189;BMP280;47054;39.716;2.904;2023-04-24T04:52:21;100153.94;;;24.60
61189;BMP280;47054;39.716;2.904;2023-04-24T04:55:13;100150.88;;;24.58
61189;BMP280;47054;39.716;2.904;2023-04-24T04:58:25;100148.16;;;24.58
61189;BMP280;47054;39.716;2.904;2023-04-24T05:01:14;100137.31;;;24.58
61189;BMP280;47054;39.716;2.904;2023-04-24T05:04:01;100141.31;;;24.53
61189;BMP280;47054;39.716;2.904;2023-04-24T05:06:45;100147.03;;;24.55
61189;BMP280;47054;39.716;2.904;2023-04-24T05:09:32;100152.06;;;24.57
61189;BMP280;47054;39.716;2.904;2023-04-24T05:12:20;100145.53;;;24.54
61189;BMP280;47054;39.716;2.904;2023-04-24T05:15:10;100162.16;;;24.56
61189;BMP280;47054;39.716;2.904;2023-04-24T05:17:54;100162.16;;;24.56
61189;BMP280;47054;39.716;2.904;2023-04-24T05:20:40;100172.22;;;24.56
61189;BMP280;47054;39.716;2.904;2023-04-24T05:23:27;100172.22;;;24.56
61189;BMP280;47054;39.716;2.904;2023-04-24T05:26:14;100174.94;;;24.56
61189;BMP280;47054;39.716;2.904;2023-04-24T05:28:59;100176.09;;;24.55
61189;BMP280;47054;39.716;2.904;2023-04-24T05:31:44;100176.88;;;24.55
61189;BMP280;47054;39.716;2.904;2023-04-24T05:34:30;100186.19;;;24.54
61189;BMP280;47054;39.716;2.904;2023-04-24T05:37:15;100176.63;;;24.50
61189;BMP280;47054;39.716;2.904;2023-04-24T05:40:00;100187.38;;;24.53
61189;BMP280;47054;39.716;2.904;2023-04-24T05:42:45;100200.50;;;24.55
61189;BMP280;47054;39.716;2.904;2023-04-24T05:45:29;100199.41;;;24.52
61189;BMP280;47054;39.716;2.904;2023-04-24T05:48:14;100196.25;;;24.54
61189;BMP280;47054;39.716;2.904;2023-04-24T05:51:00;100193.56;;;24.54
61189;BMP280;47054;39.716;2.904;2023-04-24T05:53:44;100198.97;;;24.54
61189;BMP280;47054;39.716;2.904;2023-04-24T05:56:30;100200.94;;;24.53
61189;BMP280;47054;39.716;2.904;2023-04-24T05:59:15;100209.81;;;24.54
61189;BMP280;47054;39.716;2.904;2023-04-24T06:02:00;100209.06;;;24.53
61189;BMP280;47054;39.716;2.904;2023-04-24T06:04:46;100216.50;;;24.49
61189;BMP280;47054;39.716;2.904;2023-04-24T06:07:31;100211.06;;;24.49
61189;BMP280;47054;39.716;2.904;2023-04-24T06:10:17;100223.78;;;24.52
61189;BMP280;47054;39.716;2.904;2023-04-24T06:13:02;100228.44;;;24.52
61189;BMP280;47054;39.716;2.904;2023-04-24T06:15:48;100216.16;;;24.47
61189;BMP280;47054;39.716;2.904;2023-04-24T06:18:44;100221.09;;;24.52
61189;BMP280;47054;39.716;2.904;2023-04-24T06:21:31;100224.69;;;24.46
61189;BMP280;47054;39.716;2.904;2023-04-24T06:24:16;100238.88;;;24.53
61189;BMP280;47054;39.716;2.904;2023-04-24T06:27:01;100234.63;;;24.52
61189;BMP280;47054;39.716;2.904;2023-04-24T06:29:46;100233.47;;;24.53
61189;BMP280;47054;39.716;2.904;2023-04-24T06:32:36;100230.75;;;24.53
61189;BMP280;47054;39.716;2.904;2023-04-24T06:35:21;100235.81;;;24.51
61189;BMP280;47054;39.716;2.904;2023-04-24T06:38:06;100222.31;;;24.48
61189;BMP280;47054;39.716;2.904;2023-04-24T06:40:51;100223.88;;;24.49
61189;BMP280;47054;39.716;2.904;2023-04-24T06:43:35;100231.94;;;24.52
61189;BMP280;47054;39.716;2.904;2023-04-24T06:46:20;100221.91;;;24.49
61189;BMP280;47054;39.716;2.904;2023-04-24T06:49:07;100225.72;;;24.52
61189;BMP280;47054;39.716;2.904;2023-04-24T06:51:52;100230.31;;;24.55
61189;BMP280;47054;39.716;2.904;2023-04-24T06:54:36;100231.50;;;24.54
61189;BMP280;47054;39.716;2.904;2023-04-24T06:57:20;100235.00;;;24.54
61189;BMP280;47054;39.716;2.904;2023-04-24T07:00:05;100225.34;;;24.53
61189;BMP280;47054;39.716;2.904;2023-04-24T07:02:51;100235.00;;;24.54
61189;BMP280;47054;39.716;2.904;2023-04-24T07:05:36;100241.16;;;24.55
61189;BMP280;47054;39.716;2.904;2023-04-24T07:08:22;100241.16;;;24.55
61189;BMP280;47054;39.716;2.904;2023-04-24T07:11:07;100233.78;;;24.55
61189;BMP280;47054;39.716;2.904;2023-04-24T07:13:51;100245.41;;;24.56
61189;BMP280;47054;39.716;2.904;2023-04-24T07:16:36;100233.78;;;24.55
61189;BMP280;47054;39.716;2.904;2023-04-24T07:19:21;100241.09;;;24.58
61189;BMP280;47054;39.716;2.904;2023-04-24T07:22:05;100242.28;;;24.57
61189;BMP280;47054;39.716;2.904;2023-04-24T07:24:50;100242.28;;;24.57
61189;BMP280;47054;39.716;2.904;2023-04-24T07:27:35;100236.84;;;24.57
61189;BMP280;47054;39.716;2.904;2023-04-24T07:30:20;100243.78;;;24.58
61189;BMP280;47054;39.716;2.904;2023-04-24T07:33:04;100248.06;;;24.59
61189;BMP280;47054;39.716;2.904;2023-04-24T07:35:51;100244.56;;;24.59
61189;BMP280;47054;39.716;2.904;2023-04-24T07:38:35;100246.88;;;24.60
61189;BMP280;47054;39.716;2.904;2023-04-24T07:41:20;100260.06;;;24.58
61189;BMP280;47054;39.716;2.904;2023-04-24T07:44:04;100256.97;;;24.60
61189;BMP280;47054;39.716;2.904;2023-04-24T07:46:49;100248.81;;;24.60
61189;BMP280;47054;39.716;2.904;2023-04-24T07:49:33;100253.81;;;24.61
61189;BMP280;47054;39.716;2.904;2023-04-24T07:52:19;100252.31;;;24.60
61189;BMP280;47054;39.716;2.904;2023-04-24T07:55:04;100249.16;;;24.62
61189;BMP280;47054;39.716;2.904;2023-04-24T07:57:49;100242.22;;;24.61
61189;BMP280;47054;39.716;2.904;2023-04-24T08:00:35;100247.22;;;24.62
61189;BMP280;47054;39.716;2.904;2023-04-24T08:03:19;100249.91;;;24.62
61189;BMP280;47054;39.716;2.904;2023-04-24T08:37:26;100254.22;;;22.91
61189;BMP280;47054;39.716;2.904;2023-04-24T08:40:15;100253.81;;;23.23
61189;BMP280;47054;39.716;2.904;2023-04-24T08:43:00;100257.34;;;23.46
61189;BMP280;47054;39.716;2.904;2023-04-24T08:45:45;100257.00;;;23.67
61189;BMP280;47054;39.716;2.904;2023-04-24T08:48:30;100256.78;;;23.81
61189;BMP280;47054;39.716;2.904;2023-04-24T08:51:15;100266.28;;;23.93
61189;BMP280;47054;39.716;2.904;2023-04-24T08:54:01;100267.72;;;24.01
61189;BMP280;47054;39.716;2.904;2023-04-24T08:56:48;100259.03;;;24.10
61189;BMP280;47054;39.716;2.904;2023-04-24T08:59:33;100258.56;;;24.15
61189;BMP280;47054;39.716;2.904;2023-04-24T09:02:19;100257.31;;;24.19
61189;BMP280;47054;39.716;2.904;2023-04-24T09:05:06;100263.41;;;24.23
61189;BMP280;47054;39.716;2.904;2023-04-24T09:07:55;100268.41;;;24.28
61189;BMP280;47054;39.716;2.904;2023-04-24T09:10:41;100272.25;;;24.27
61189;BMP280;47054;39.716;2.904;2023-04-24T09:13:26;100271.03;;;24.32
61189;BMP280;47054;39.716;2.904;2023-04-24T09:16:11;100274.06;;;24.34
61189;BMP280;47054;39.716;2.904;2023-04-24T09:18:56;100277.16;;;24.36
61189;BMP280;47054;39.716;2.904;2023-04-24T09:21:40;100275.63;;;24.35
61189;BMP280;47054;39.716;2.904;2023-04-24T09:24:26;100276.34;;;24.39
61189;BMP280;47054;39.716;2.904;2023-04-24T09:27:11;100284.03;;;24.40
61189;BMP280;47054;39.716;2.904;2023-04-24T09:29:57;100282.84;;;24.41
61189;BMP280;47054;39.716;2.904;2023-04-24T09:32:42;100289.81;;;24.42
61189;BMP280;47054;39.716;2.904;2023-04-24T09:35:26;100281.28;;;24.44
61189;BMP280;47054;39.716;2.904;2023-04-24T09:38:11;100280.06;;;24.45
61189;BMP280;47054;39.716;2.904;2023-04-24T09:40:55;100273.88;;;24.44
61189;BMP280;47054;39.716;2.904;2023-04-24T09:43:43;100273.88;;;24.44
61189;BMP280;47054;39.716;2.904;2023-04-24T09:46:31;100270.00;;;24.45
61189;BMP280;47054;39.716;2.904;2023-04-24T09:49:31;100276.53;;;24.48
61189;BMP280;47054;39.716;2.904;2023-04-24T09:52:17;100285.09;;;24.46
61189;BMP280;47054;39.716;2.904;2023-04-24T09:55:02;100283.13;;;24.47
61189;BMP280;47054;39.716;2.904;2023-04-24T09:57:55;100282.84;;;24.41
61189;BMP280;47054;39.716;2.904;2023-04-24T10:00:40;100271.63;;;24.43
61189;BMP280;47054;39.716;2.904;2023-04-24T10:03:25;100282.47;;;24.43
61189;BMP280;47054;39.716;2.904;2023-04-24T10:06:12;100275.84;;;24.44
61189;BMP280;47054;39.716;2.904;2023-04-24T10:08:57;100277.38;;;24.45
61189;BMP280;47054;39.716;2.904;2023-04-24T10:11:44;100274.66;;;24.45
61189;BMP280;47054;39.716;2.904;2023-04-24T10:14:31;100276.97;;;24.46
61189;BMP280;47054;39.716;2.904;2023-04-24T10:17:16;100275.00;;;24.47
61189;BMP280;47054;39.716;2.904;2023-04-24T10:20:01;100283.91;;;24.47
61189;BMP280;47054;39.716;2.904;2023-04-24T10:22:49;100272.38;;;24.43
61189;BMP280;47054;39.716;2.904;2023-04-24T10:25:37;100273.06;;;24.47
61189;BMP280;47054;39.716;2.904;2023-04-24T10:28:22;100270.34;;;24.47
61189;BMP280;47054;39.716;2.904;2023-04-24T10:31:09;100264.94;;;24.47
61189;BMP280;47054;39.716;2.904;2023-04-24T10:33:55;100265.69;;;24.48
61189;BMP280;47054;39.716;2.904;2023-04-24T10:36:42;100266.47;;;24.48
61189;BMP280;47054;39.716;2.904;2023-04-24T10:39:27;100250.97;;;24.49
61189;BMP280;47054;39.716;2.904;2023-04-24T10:42:15;100254.44;;;24.49
61189;BMP280;47054;39.716;2.904;2023-04-24T10:45:05;100255.63;;;24.48
61189;BMP280;47054;39.716;2.904;2023-04-24T10:47:57;100258.69;;;24.50
61189;BMP280;47054;39.716;2.904;2023-04-24T10:50:46;100258.06;;;24.43
61189;BMP280;47054;39.716;2.904;2023-04-24T10:53:34;100259.59;;;24.44
61189;BMP280;47054;39.716;2.904;2023-04-24T10:56:21;100260.34;;;24.44
61189;BMP280;47054;39.716;2.904;2023-04-24T10:59:07;100247.91;;;24.47
61189;BMP280;47054;39.716;2.904;2023-04-24T11:01:54;100255.28;;;24.46
61189;BMP280;47054;39.716;2.904;2023-04-24T11:04:41;100254.84;;;24.48
61189;BMP280;47054;39.716;2.904;2023-04-24T11:07:27;100257.56;;;24.48
61189;BMP280;47054;39.716;2.904;2023-04-24T11:10:25;100249.03;;;24.49
61189;BMP280;47054;39.716;2.904;2023-04-24T11:13:10;100251.75;;;24.49
61189;BMP280;47054;39.716;2.904;2023-04-24T11:19:24;100238.97;;;24.50
61189;BMP280;47054;39.716;2.904;2023-04-24T11:22:14;100235.88;;;24.48
61189;BMP280;47054;39.716;2.904;2023-04-24T11:24:59;100240.91;;;24.49
61189;BMP280;47054;39.716;2.904;2023-04-24T11:27:49;100230.81;;;24.50
61189;BMP280;47054;39.716;2.904;2023-04-24T11:30:34;100230.06;;;24.49
61189;BMP280;47054;39.716;2.904;2023-04-24T11:33:20;100233.09;;;24.51
61189;BMP280;47054;39.716;2.904;2023-04-24T11:36:05;100228.44;;;24.52
61189;BMP280;47054;39.716;2.904;2023-04-24T11:38:50;100215.31;;;24.50
61189;BMP280;47054;39.716;2.904;2023-04-24T11:41:35;100217.59;;;24.52
61189;BMP280;47054;39.716;2.904;2023-04-24T11:44:20;100216.00;;;24.54
61189;BMP280;47054;39.716;2.904;2023-04-24T11:47:05;100216.16;;;24.47
61189;BMP280;47054;39.716;2.904;2023-04-24T11:49:51;100211.78;;;24.53
61189;BMP280;47054;39.716;2.904;2023-04-24T11:52:40;100221.00;;;24.56
61189;BMP280;47054;39.716;2.904;2023-04-24T11:55:26;100217.53;;;24.55
61189;BMP280;47054;39.716;2.904;2023-04-24T11:58:11;100223.72;;;24.56
61189;BMP280;47054;39.716;2.904;2023-04-24T12:00:56;100219.84;;;24.57
61189;BMP280;47054;39.716;2.904;2023-04-24T12:03:47;100226.00;;;24.57
61189;BMP280;47054;39.716;2.904;2023-04-24T12:06:31;100223.72;;;24.56
61189;BMP280;47054;39.716;2.904;2023-04-24T12:09:16;100216.38;;;24.56
61189;BMP280;47054;39.716;2.904;2023-04-24T12:12:00;100206.75;;;24.52
61189;BMP280;47054;39.716;2.904;2023-04-24T12:14:49;100206.28;;;24.57
61189;BMP280;47054;39.716;2.904;2023-04-24T12:17:35;100201.25;;;24.55
61189;BMP280;47054;39.716;2.904;2023-04-24T12:20:31;100211.72;;;24.57
61189;BMP280;47054;39.716;2.904;2023-04-24T12:23:16;100212.19;;;24.52
61189;BMP280;47054;39.716;2.904;2023-04-24T12:26:18;100216.75;;;24.55
61189;BMP280;47054;39.716;2.904;2023-04-24T12:29:03;100200.50;;;24.55
61189;BMP280;47054;39.716;2.904;2023-04-24T12:31:50;100207.09;;;24.54
61189;BMP280;47054;39.716;2.904;2023-04-24T12:34:35;100214.50;;;24.53
61189;BMP280;47054;39.716;2.904;2023-04-24T12:37:20;100206.38;;;24.53
61189;BMP280;47054;39.716;2.904;2023-04-24T12:40:10;100212.09;;;24.55
61189;BMP280;47054;39.716;2.904;2023-04-24T12:42:54;100213.31;;;24.54
61189;BMP280;47054;39.716;2.904;2023-04-24T12:45:39;100214.81;;;24.55
61189;BMP280;47054;39.716;2.904;2023-04-24T12:48:23;100212.53;;;24.54
61189;BMP280;47054;39.716;2.904;2023-04-24T12:51:07;100211.34;;;24.55
61189;BMP280;47054;39.716;2.904;2023-04-24T12:53:52;100211.34;;;24.55
61189;BMP280;47054;39.716;2.904;2023-04-24T12:56:36;100204.75;;;24.56
61189;BMP280;47054;39.716;2.904;2023-04-24T12:59:23;100202.81;;;24.56
61189;BMP280;47054;39.716;2.904;2023-04-24T13:02:08;100200.88;;;24.57
61189;BMP280;47054;39.716;2.904;2023-04-24T13:04:53;100190.03;;;24.57
61189;BMP280;47054;39.716;2.904;2023-04-24T13:07:38;100192.75;;;24.57
61189;BMP280;47054;39.716;2.904;2023-04-24T13:10:22;100201.63;;;24.57
61189;BMP280;47054;39.716;2.904;2023-04-24T13:13:07;100188.84;;;24.58
61189;BMP280;47054;39.716;2.904;2023-04-24T13:15:52;100178.00;;;24.58
61189;BMP280;47054;39.716;2.904;2023-04-24T13:18:37;100185.34;;;24.57
61189;BMP280;47054;39.716;2.904;2023-04-24T13:21:21;100184.94;;;24.59
61189;BMP280;47054;39.716;2.904;2023-04-24T13:24:06;100183.41;;;24.58
61189;BMP280;47054;39.716;2.904;2023-04-24T13:26:53;100181.06;;;24.60
61189;BMP280;47054;39.716;2.904;2023-04-24T13:29:37;100176.03;;;24.58
61189;BMP280;47054;39.716;2.904;2023-04-24T13:32:22;100169.44;;;24.59
61189;BMP280;47054;39.716;2.904;2023-04-24T13:35:07;100171.72;;;24.61
61189;BMP280;47054;39.716;2.904;2023-04-24T13:37:52;100171.72;;;24.61
61189;BMP280;47054;39.716;2.904;2023-04-24T13:40:36;100162.84;;;24.60
61189;BMP280;47054;39.716;2.904;2023-04-24T13:43:21;100161.63;;;24.61
61189;BMP280;47054;39.716;2.904;2023-04-24T13:46:05;100165.09;;;24.62
61189;BMP280;47054;39.716;2.904;2023-04-24T13:48:51;100170.53;;;24.62
61189;BMP280;47054;39.716;2.904;2023-04-24T13:51:35;100169.34;;;24.63
61189;BMP280;47054;39.716;2.904;2023-04-24T13:54:20;100165.47;;;24.64
61189;BMP280;47054;39.716;2.904;2023-04-24T13:57:07;100168.94;;;24.64
61189;BMP280;47054;39.716;2.904;2023-04-24T13:59:52;100158.09;;;24.64
61189;BMP280;47054;39.716;2.904;2023-04-24T14:02:36;100159.59;;;24.65
61189;BMP280;47054;39.716;2.904;2023-04-24T14:05:21;100161.56;;;24.65
61189;BMP280;47054;39.716;2.904;2023-04-24T14:08:06;100153.78;;;24.67
61189;BMP280;47054;39.716;2.904;2023-04-24T14:10:50;100153.78;;;24.67
61189;BMP280;47054;39.716;2.904;2023-04-24T14:13:36;100141.81;;;24.64
61189;BMP280;47054;39.716;2.904;2023-04-24T14:16:22;100144.88;;;24.66
61189;BMP280;47054;39.716;2.904;2023-04-24T14:19:06;100143.72;;;24.67
61189;BMP280;47054;39.716;2.904;2023-04-24T14:21:51;100147.59;;;24.66
61189;BMP280;47054;39.716;2.904;2023-04-24T14:24:35;100132.88;;;24.67
61189;BMP280;47054;39.716;2.904;2023-04-24T14:27:20;100122.41;;;24.66
61189;BMP280;47054;39.716;2.904;2023-04-24T14:30:06;100141.00;;;24.67
61189;BMP280;47054;39.716;2.904;2023-04-24T14:32:50;100133.63;;;24.68
61189;BMP280;47054;39.716;2.904;2023-04-24T14:35:36;100135.59;;;24.67
61189;BMP280;47054;39.716;2.904;2023-04-24T14:38:21;100144.47;;;24.68
61189;BMP280;47054;39.716;2.904;2023-04-24T14:41:06;100141.00;;;24.67
61189;BMP280;47054;39.716;2.904;2023-04-24T14:43:54;100130.16;;;24.67
61189;BMP280;47054;39.716;2.904;2023-04-24T14:46:39;100122.78;;;24.68
61189;BMP280;47054;39.716;2.904;2023-04-24T14:49:23;100125.47;;;24.68
61189;BMP280;47054;39.716;2.904;2023-04-24T14:52:08;100123.50;;;24.68
61189;BMP280;47054;39.716;2.904;2023-04-24T14:54:52;100125.06;;;24.69
61189;BMP280;47054;39.716;2.904;2023-04-24T14:57:37;100120.06;;;24.68
61189;BMP280;47054;39.716;2.904;2023-04-24T15:00:22;100119.31;;;24.67
61189;BMP280;47054;39.716;2.904;2023-04-24T15:03:08;100120.06;;;24.68
61189;BMP280;47054;39.716;2.904;2023-04-24T15:05:53;100121.56;;;24.69
61189;BMP280;47054;39.716;2.904;2023-04-24T15:08:37;100125.06;;;24.69
61189;BMP280;47054;39.716;2.904;2023-04-24T15:11:22;100128.19;;;24.68
61189;BMP280;47054;39.716;2.904;2023-04-24T15:14:06;100125.81;;;24.70
61189;BMP280;47054;39.716;2.904;2023-04-24T15:16:51;100131.25;;;24.70
61189;BMP280;47054;39.716;2.904;2023-04-24T15:19:35;100129.31;;;24.70
61189;BMP280;47054;39.716;2.904;2023-04-24T15:22:20;100135.47;;;24.71
61189;BMP280;47054;39.716;2.904;2023-04-24T15:25:05;100129.31;;;24.70
61189;BMP280;47054;39.716;2.904;2023-04-24T15:27:50;100125.41;;;24.71
61189;BMP280;47054;39.716;2.904;2023-04-24T15:30:35;100119.97;;;24.71
61189;BMP280;47054;39.716;2.904;2023-04-24T15:33:20;100118.78;;;24.72
61189;BMP280;47054;39.716;2.904;2023-04-24T15:36:06;100103.03;;;24.67
61189;BMP280;47054;39.716;2.904;2023-04-24T15:38:50;100099.03;;;24.72
61189;BMP280;47054;39.716;2.904;2023-04-24T15:41:35;100109.88;;;24.72
61189;BMP280;47054;39.716;2.904;2023-04-24T15:44:21;100114.91;;;24.73
61189;BMP280;47054;39.716;2.904;2023-04-24T15:47:05;100115.69;;;24.74
61189;BMP280;47054;39.716;2.904;2023-04-24T15:49:51;100104.84;;;24.74
61189;BMP280;47054;39.716;2.904;2023-04-24T15:52:36;100109.47;;;24.73
61189;BMP280;47054;39.716;2.904;2023-04-24T15:55:21;100112.50;;;24.75
61189;BMP280;47054;39.716;2.904;2023-04-24T15:58:06;100113.34;;;24.72
61189;BMP280;47054;39.716;2.904;2023-04-24T16:00:51;100122.19;;;24.76
61189;BMP280;47054;39.716;2.904;2023-04-24T16:03:37;100111.78;;;24.75
61189;BMP280;47054;39.716;2.904;2023-04-24T16:06:22;100110.56;;;24.76
61189;BMP280;47054;39.716;2.904;2023-04-24T16:09:06;100106.69;;;24.77
61189;BMP280;47054;39.716;2.904;2023-04-24T16:11:52;100104.38;;;24.75
61189;BMP280;47054;39.716;2.904;2023-04-24T16:14:37;100108.22;;;24.78
61189;BMP280;47054;39.716;2.904;2023-04-24T16:17:22;100116.34;;;24.78